Latest Weather Observations for Alice Springs Airport

IDD60801

Issued at 6:11 pm CST Friday 21 February 2020 (issued every 10 minutes, with the page automatically refreshed every 10 minutes)

About weather observations | Map of weather stations | Latest weather observations for NT | Other Formats
Station Details ID: 015590 Name: ALICE SPRINGS AIRPORT Lat: -23.80 Lon: 133.89 Height: 546.0 m
Data from the previous 72 hours. | See also: Recent months at Alice Springs Airport
Date/Time
CST
Temp
°C
App
Temp
°C
Dew
Point
°C
Rel
Hum
%
Delta-T
°C
Wind Press
QNH
hPa
Press
MSL
hPa
Rain since
9am
mm
Dir  Spd
km/h
Gust
km/h
Spd
kts
Gust
kts
21/06:00pm 33.6 28.4 3.4 15 16.0 SE 20 33 11 18 1013.4 1009.5 0.0
21/05:30pm 33.7 27.7 3.5 15 16.0 SE 24 35 13 19 1013.3 1009.4 0.0
21/05:00pm 34.2 28.1 2.9 14 16.5 SSE 24 35 13 19 1013.1 1009.2 0.0
21/04:30pm 34.2 27.7 2.9 14 16.5 SE 26 39 14 21 1013.0 1009.1 0.0
21/04:00pm 33.6 27.8 2.4 14 16.3 SE 22 43 12 23 1013.2 1009.3 0.0
21/03:30pm 34.4 28.0 3.1 14 16.6 SE 26 41 14 22 1013.3 1009.4 0.0
21/03:00pm 34.8 27.9 2.3 13 17.0 SE 28 43 15 23 1013.6 1009.7 0.0
21/02:30pm 34.0 28.3 2.8 14 16.4 SE 22 37 12 20 1014.1 1010.1 0.0
21/02:00pm 33.6 27.1 2.4 14 16.3 SE 26 39 14 21 1014.4 1010.4 0.0
21/01:30pm 33.7 27.9 2.5 14 16.3 ESE 22 41 12 22 1014.7 1010.8 0.0
21/01:00pm 32.4 26.1 1.5 14 15.8 ESE 24 39 13 21 1015.1 1011.2 0.0
21/12:30pm 32.9 27.0 1.9 14 16.0 SSE 22 35 12 19 1015.3 1011.4 0.0
21/12:00pm 32.0 25.6 1.2 14 15.6 SE 24 32 13 17 1015.7 1011.8 0.0
21/11:30am 32.2 25.9 1.3 14 15.7 ESE 24 48 13 26 1015.8 1011.9 0.0
21/11:00am 30.4 24.4 0.9 15 14.7 ESE 22 35 12 19 1016.2 1012.2 0.0
21/10:30am 30.0 24.5 0.6 15 14.5 E 19 32 10 17 1016.6 1012.7 0.0
21/10:00am 29.1 23.4 0.7 16 14.0 E 20 32 11 17 1016.6 1012.7 0.0
21/09:30am 28.2 21.8 0.9 17 13.4 ESE 24 32 13 17 1016.5 1012.6 0.0
21/09:00am 27.3 22.2 0.9 18 12.9 ESE 17 24 9 13 1016.7 1012.8 0.0
21/08:30am 26.0 20.9 0.6 19 12.2 ESE 17 22 9 12 1016.4 1012.5 0.0
21/08:00am 24.6 20.3 0.8 21 11.4 ESE 13 19 7 10 1016.2 1012.2 0.0
21/07:30am 23.0 19.2 -0.5 21 10.8 ESE 9 11 5 6 1015.8 1011.9 0.0
21/07:00am 20.3 17.7 -1.5 23 9.7 S 2 6 1 3 1015.4 1011.5 0.0
21/06:30am 18.9 16.2 -2.1 24 9.1 E 2 6 1 3 1015.0 1011.1 0.0
21/06:00am 19.4 17.1 -2.2 23 9.4 CALM 0 0 0 0 1014.9 1011.0 0.0
21/05:30am 19.7 17.4 -2.6 22 9.6 CALM 0 0 0 0 1014.9 1011.0 0.0
21/05:00am 19.3 17.0 -2.3 23 9.3 CALM 0 0 0 0 1014.9 1011.0 0.0
21/04:30am 20.1 16.6 -2.9 21 9.9 ENE 6 9 3 5 1014.6 1010.6 0.0
21/04:00am 20.7 16.6 -3.0 20 10.2 ESE 9 13 5 7 1014.5 1010.5 0.0
21/03:30am 22.5 18.0 -3.0 18 11.2 ESE 11 13 6 7 1014.5 1010.5 0.0
21/03:00am 21.9 17.4 -3.5 18 11.0 ESE 11 15 6 8 1014.6 1010.6 0.0
21/02:30am 20.7 16.9 -3.7 19 10.4 SE 7 9 4 5 1014.7 1010.8 0.0
21/02:00am 22.1 18.3 -4.1 17 11.2 SSE 7 7 4 4 1014.9 1011.0 0.0
21/01:30am 22.5 18.2 -4.5 16 11.5 ESE 9 9 5 5 1015.2 1011.3 0.0
21/01:00am 23.7 19.4 -4.4 15 12.1 ESE 9 9 5 5 1015.5 1011.6 0.0
21/12:30am 25.0 20.4 -4.3 14 12.8 ESE 11 13 6 7 1015.6 1011.7 0.0
21/12:00am 24.6 19.9 -4.6 14 12.6 ESE 11 11 6 6 1015.6 1011.7 0.0
 
Date/Time
CST
Temp
°C
App
Temp
°C
Dew
Point
°C
Rel
Hum
%
Delta-T
°C
Wind Press
QNH
hPa
Press
MSL
hPa
Rain since
9am
mm
Dir  Spd
km/h
Gust
km/h
Spd
kts
Gust
kts
20/11:30pm 25.1 20.9 -4.2 14 12.8 ESE 9 11 5 6 1015.6 1011.7 0.0
20/11:00pm 25.3 21.0 -5.1 13 13.1 SE 9 13 5 7 1015.4 1011.5 0.0
20/10:30pm 26.4 21.8 -4.2 13 13.5 SE 11 13 6 7 1015.0 1011.1 0.0
20/10:00pm 26.9 22.2 -4.9 12 14.0 SE 11 13 6 7 1014.8 1010.9 0.0
20/09:30pm 27.2 22.5 -4.6 12 14.1 SE 11 11 6 6 1014.4 1010.4 0.0
20/09:00pm 28.8 24.1 -4.6 11 15.0 SE 11 13 6 7 1014.1 1010.1 0.0
20/08:30pm 29.7 24.6 -5.1 10 15.6 SE 13 17 7 9 1013.3 1009.4 0.0
20/08:00pm 30.7 24.9 -4.4 10 16.0 SE 17 20 9 11 1012.7 1008.7 0.0
20/07:30pm 31.2 25.1 -4.0 10 16.3 SE 19 26 10 14 1012.5 1008.5 0.0
20/07:00pm 32.0 25.8 -4.8 9 16.9 SE 19 26 10 14 1012.1 1008.1 0.0
20/06:30pm 32.9 26.6 -4.1 9 17.3 SE 20 28 11 15 1011.8 1007.9 0.0
20/06:00pm 33.6 27.2 -5.2 8 17.9 SE 20 32 11 17 1011.5 1007.6 0.0
20/05:30pm 33.8 27.6 -5.0 8 18.0 ESE 19 28 10 15 1011.4 1007.5 0.0
20/05:00pm 33.6 28.1 -5.2 8 17.9 SSE 15 26 8 14 1011.4 1007.5 0.0
20/04:30pm 33.8 28.0 -5.0 8 18.0 SE 17 28 9 15 1011.4 1007.5 0.0
20/04:00pm 33.9 28.1 -4.9 8 18.0 SE 17 30 9 16 1011.6 1007.7 0.0
20/03:30pm 34.1 27.3 -4.8 8 18.1 E 22 32 12 17 1011.8 1007.9 0.0
20/03:00pm 33.9 27.5 -4.9 8 18.0 SE 20 32 11 17 1011.8 1007.9 0.0
20/02:30pm 33.0 26.7 -5.6 8 17.6 SSE 19 30 10 16 1012.3 1008.3 0.0
20/02:00pm 33.3 28.0 -3.8 9 17.5 SE 15 28 8 15 1012.5 1008.5 0.0
20/01:30pm 32.9 27.5 -4.1 9 17.3 SE 15 28 8 15 1012.8 1008.8 0.0
20/01:00pm 32.7 27.1 -2.9 10 16.9 ESE 17 30 9 16 1013.3 1009.4 0.0
20/12:30pm 31.7 25.6 -2.3 11 16.2 E 20 33 11 18 1014.0 1010.0 0.0
20/12:00pm 30.4 24.5 -2.2 12 15.4 ESE 19 28 10 15 1014.2 1010.2 0.0
20/11:30am 29.0 23.1 -2.2 13 14.6 ESE 19 26 10 14 1014.4 1010.4 0.0
20/11:00am 28.6 23.4 0.3 16 13.8 E 17 30 9 16 1015.0 1011.1 0.0
20/10:30am 27.9 22.3 1.4 18 13.1 ENE 20 28 11 15 1015.1 1011.2 0.0
20/10:00am 27.0 20.3 1.4 19 12.6 ENE 26 33 14 18 1015.5 1011.6 0.0
20/09:30am 26.2 18.9 2.2 21 11.9 E 30 35 16 19 1015.7 1011.8 0.0
20/09:00am 25.2 18.7 2.6 23 11.2 E 26 32 14 17 1016.3 1012.3 0.0
20/08:30am 24.2 18.5 2.9 25 10.6 ESE 22 28 12 15 1016.3 1012.3 0.0
20/08:00am 23.0 17.9 3.0 27 9.9 E 19 24 10 13 1016.1 1012.1 0.0
20/07:30am 21.3 17.3 2.6 29 9.0 ESE 13 15 7 8 1015.8 1011.9 0.0
20/07:00am 19.4 16.6 1.9 31 8.2 SE 6 7 3 4 1015.5 1011.6 0.0
20/06:30am 17.8 14.9 1.3 33 7.6 SE 6 7 3 4 1015.1 1011.2 0.0
20/06:00am 18.6 15.2 1.6 32 7.9 SE 9 11 5 6 1014.6 1010.6 0.0
20/05:30am 18.2 14.3 1.3 32 7.8 SSE 11 13 6 7 1014.5 1010.5 0.0
20/05:00am 18.6 14.6 0.7 30 8.2 SSE 11 13 6 7 1014.4 1010.4 0.0
20/04:30am 18.8 15.1 -0.1 28 8.5 SSE 9 11 5 6 1014.1 1010.1 0.0
20/04:00am 19.3 15.6 -0.1 27 8.8 SSE 9 11 5 6 1013.6 1009.7 0.0
20/03:30am 19.6 15.5 0.1 27 8.9 SSE 11 11 6 6 1013.5 1009.6 0.0
20/03:00am 20.5 16.8 -0.2 25 9.4 SE 9 11 5 6 1013.4 1009.5 0.0
20/02:30am 21.3 17.6 -0.1 24 9.8 SE 9 11 5 6 1013.7 1009.8 0.0
20/02:00am 21.5 17.7 -0.5 23 10.0 SE 9 9 5 5 1014.0 1010.0 0.0
20/01:30am 22.8 18.7 0.0 22 10.6 SE 11 11 6 6 1014.1 1010.1 0.0
20/01:00am 24.0 19.6 0.4 21 11.2 SE 13 17 7 9 1014.0 1010.0 0.0
20/12:30am 24.7 19.9 0.3 20 11.6 SE 15 19 8 10 1014.0 1010.0 0.0
20/12:00am 24.2 19.7 -0.2 20 11.4 SE 13 17 7 9 1014.2 1010.2 0.0
 
Date/Time
CST
Temp
°C
App
Temp
°C
Dew
Point
°C
Rel
Hum
%
Delta-T
°C
Wind Press
QNH
hPa
Press
MSL
hPa
Rain since
9am
mm
Dir  Spd
km/h
Gust
km/h
Spd
kts
Gust
kts
19/11:30pm 24.6 20.7 -1.3 18 11.9 SE 9 11 5 6 1014.2 1010.2 0.0
19/11:00pm 25.3 21.0 -1.5 17 12.4 ESE 11 11 6 6 1014.2 1010.2 0.0
19/10:30pm 26.0 21.2 -2.6 15 13.0 SE 13 15 7 8 1014.1 1010.1 0.0
19/10:00pm 26.9 22.1 -2.8 14 13.5 ESE 13 17 7 9 1013.8 1009.9 0.0
19/09:30pm 27.3 22.5 -2.5 14 13.7 SE 13 15 7 8 1013.4 1009.5 0.0
19/09:00pm 28.1 23.4 -1.9 14 14.0 SE 13 17 7 9 1013.1 1009.2 0.0
19/08:30pm 28.8 24.0 -2.3 13 14.5 SE 13 17 7 9 1012.7 1008.7 0.0
19/08:00pm 29.6 24.0 -2.8 12 15.1 SE 17 22 9 12 1012.2 1008.2 0.0
19/07:30pm 30.4 24.9 -2.2 12 15.4 SE 17 24 9 13 1011.8 1007.9 0.0
19/07:00pm 31.1 25.3 -1.6 12 15.7 SE 19 26 10 14 1011.7 1007.8 0.0
19/06:30pm 31.9 25.4 -2.2 11 16.3 ESE 22 30 12 16 1011.5 1007.6 0.0
19/06:00pm 32.6 26.2 -1.7 11 16.6 ESE 22 35 12 19 1011.4 1007.5 0.0
19/05:30pm 32.5 25.7 -1.7 11 16.6 ESE 24 35 13 19 1011.5 1007.6 0.0
19/05:00pm 33.3 27.4 -1.1 11 16.9 SE 20 30 11 16 1011.6 1007.7 0.0
19/04:30pm 33.6 27.3 -0.9 11 17.1 ESE 22 32 12 17 1011.7 1007.8 0.0
19/04:00pm 33.3 27.2 0.1 12 16.7 SE 22 32 12 17 1011.7 1007.8 0.0
19/03:30pm 33.4 27.6 0.1 12 16.7 SSE 20 33 11 18 1012.1 1008.1 0.0
19/03:00pm 33.0 27.2 -0.2 12 16.6 SE 20 30 11 16 1012.2 1008.2 0.0
19/02:30pm 33.6 27.9 0.3 12 16.8 SSE 20 33 11 18 1012.6 1008.6 0.0
19/02:00pm 31.7 25.4 -1.2 12 16.0 SE 22 33 12 18 1013.0 1009.1 0.0
19/01:30pm 32.2 26.1 0.3 13 15.9 SE 22 33 12 18 1013.3 1009.4 0.0
19/01:00pm 31.4 25.0 0.7 14 15.4 SSE 24 33 13 18 1013.7 1009.8 0.0
19/12:30pm 29.7 23.7 1.2 16 14.2 SE 22 41 12 22 1014.3 1010.3 0.0
19/12:00pm 30.2 24.4 2.5 17 14.2 SE 22 35 12 19 1014.9 1011.0 0.0
19/11:30am 28.8 22.5 1.3 17 13.7 ESE 24 35 13 19 1015.3 1011.4 0.0
19/11:00am 28.2 21.5 1.7 18 13.2 ESE 26 35 14 19 1015.7 1011.8 0.0
19/10:30am 27.1 20.4 1.5 19 12.6 ESE 26 37 14 20 1016.0 1012.0 0.0
19/10:00am 27.0 19.9 1.4 19 12.6 ESE 28 37 15 20 1016.1 1012.1 0.0
19/09:30am 26.7 19.7 1.9 20 12.3 ESE 28 37 15 20 1016.1 1012.1 0.0
19/09:00am 25.2 18.8 0.7 20 11.7 SE 24 35 13 19 1016.0 1012.0 0.0
19/08:30am 25.2 18.9 1.3 21 11.6 SE 24 32 13 17 1016.0 1012.0 0.0
19/08:00am 24.2 17.1 1.2 22 11.1 ESE 28 41 15 22 1016.0 1012.0 0.0
19/07:30am 23.8 16.5 0.2 21 11.1 SE 28 37 15 20 1015.5 1011.6 0.0
19/07:29am 23.8 16.5 0.2 21 11.1 SE 28 37 15 20 1015.5 1011.6 0.0
19/07:00am 23.0 18.7 0.8 23 10.5 SE 13 19 7 10 1015.1 1011.2 0.0
19/06:30am 22.8 17.8 1.2 24 10.3 SE 17 22 9 12 1015.1 1011.2 0.0
19/06:00am 23.2 18.3 2.1 25 10.2 SE 17 24 9 13 1014.7 1010.8 0.0
19/05:30am 23.1 19.1 3.1 27 9.9 SSE 13 19 7 10 1014.7 1010.8 0.0
19/05:00am 23.8 19.6 3.7 27 10.1 SE 15 20 8 11 1014.4 1010.4 0.0
19/04:30am 24.3 20.1 3.6 26 10.4 SE 15 19 8 10 1014.3 1010.3 0.0
19/04:00am 24.8 20.3 4.0 26 10.6 SE 17 24 9 13 1014.2 1010.2 0.0
19/03:30am 24.9 20.8 4.6 27 10.4 SSE 15 20 8 11 1014.1 1010.1 0.0
19/03:00am 25.3 21.7 5.0 27 10.5 SE 13 15 7 8 1014.1 1010.1 0.0
19/02:30am 26.1 21.8 5.1 26 11.0 SSE 17 20 9 11 1014.1 1010.1 0.0
19/02:00am 26.9 22.7 5.8 26 11.2 SE 17 24 9 13 1014.3 1010.3 0.0
19/01:30am 27.0 23.3 6.4 27 11.1 SE 15 20 8 11 1014.3 1010.3 0.0
19/01:00am 27.7 23.1 6.5 26 11.5 ESE 20 28 11 15 1014.4 1010.4 0.0
19/12:30am 28.1 24.6 7.4 27 11.4 SE 15 17 8 9 1014.5 1010.5 0.0
19/12:00am 28.7 24.5 7.3 26 11.8 SE 19 30 10 16 1014.5 1010.5 0.0
 
Date/Time
CST
Temp
°C
App
Temp
°C
Dew
Point
°C
Rel
Hum
%
Delta-T
°C
Wind Press
QNH
hPa
Press
MSL
hPa
Rain since
9am
mm
Dir  Spd
km/h
Gust
km/h
Spd
kts
Gust
kts
18/11:30pm 29.3 24.6 7.8 26 12.0 SE 22 35 12 19 1014.5 1010.5 0.0
18/11:00pm 29.9 25.2 7.8 25 12.3 SE 22 33 12 18 1014.5 1010.5 0.0
18/10:30pm 30.4 26.0 7.6 24 12.7 SE 20 30 11 16 1014.3 1010.3 0.0
18/10:00pm 30.8 26.6 7.3 23 13.1 SE 19 28 10 15 1014.2 1010.2 0.0
18/09:30pm 31.4 25.8 7.1 22 13.5 SE 26 37 14 20 1014.0 1010.0 0.0
18/09:00pm 31.7 27.9 7.4 22 13.6 SE 17 22 9 12 1013.5 1009.6 0.0
18/08:30pm 32.3 28.0 7.2 21 14.1 SE 19 28 10 15 1013.0 1009.1 0.0
18/08:00pm 32.8 28.4 7.6 21 14.2 SE 20 30 11 16 1012.6 1008.6 0.0
18/07:30pm 33.3 28.9 7.3 20 14.7 SE 20 32 11 17 1011.8 1007.9 0.0
18/07:00pm 34.0 28.0 7.1 19 15.2 SE 28 39 15 21 1011.4 1007.5 0.0
18/06:30pm 35.0 29.8 7.1 18 15.8 SE 24 37 13 20 1011.0 1007.0 0.0

Other formats

Comma delimited format used in spreadsheet applications
http://www.bom.gov.au/fwo/IDD60801/IDD60801.94326.axf

JavaScript Object Notation format (JSON) in row-major order
http://www.bom.gov.au/fwo/IDD60801/IDD60801.94326.json

Data quality

Most of these data are generated automatically and are frequently updated. Quality checks on data are not normally performed. It is possible for incorrect values to appear. Refer to information at About Latest Weather Observations and please check the disclaimer before using these data.